Time;durP1;ratioP1;P1;durP2;ratioP2;P2;SDS_P1;SDS_P2;PMS_P1;PMS_P2;Temp;Humidity;BMP_temperature;BMP_pressure;BME280_temperature;BME280_humidity;BME280_pressure;Samples;Min_cycle;Max_cycle;Signal;HPM_P1;HPM_P2
2023/11/20 00:01:54;;;;;;;9.23;2.40;;;11.90;99.90;;;;;;5032267;28;20621;-58
2023/11/20 00:04:21;;;;;;;9.40;2.10;;;11.90;99.90;;;;;;5031934;28;20230;-58
2023/11/20 00:06:47;;;;;;;6.83;2.33;;;11.90;99.90;;;;;;5031898;28;20230;-59
2023/11/20 00:09:14;;;;;;;11.33;2.63;;;11.90;99.90;;;;;;5031790;28;20660;-58
2023/11/20 00:11:41;;;;;;;6.33;2.07;;;12.00;99.90;;;;;;5032073;28;20592;-58
2023/11/20 00:14:07;;;;;;;10.37;2.50;;;11.90;99.90;;;;;;5031840;28;20632;-59
2023/11/20 00:16:34;;;;;;;12.23;2.73;;;11.90;99.90;;;;;;5031852;28;20226;-59
2023/11/20 00:19:03;;;;;;;9.88;2.40;;;11.90;99.90;;;;;;5028419;28;20440;-61
2023/11/20 00:21:31;;;;;;;7.50;2.00;;;11.80;99.90;;;;;;5031276;28;20242;-63
2023/11/20 00:23:58;;;;;;;9.83;2.47;;;11.80;99.90;;;;;;5031689;28;20243;-65
2023/11/20 00:26:25;;;;;;;10.03;2.50;;;11.80;99.90;;;;;;5031012;28;20321;-67
2023/11/20 00:28:53;;;;;;;10.40;2.27;;;11.70;99.90;;;;;;5031671;28;20694;-66
2023/11/20 00:31:20;;;;;;;11.57;2.70;;;11.70;99.90;;;;;;5031594;28;20297;-60
2023/11/20 00:33:47;;;;;;;11.97;2.37;;;11.60;99.90;;;;;;5031652;28;20202;-60
2023/11/20 00:36:16;;;;;;;8.50;2.03;;;11.60;99.90;;;;;;5031025;28;20719;-61
2023/11/20 00:38:43;;;;;;;8.97;2.03;;;11.50;99.90;;;;;;5031256;28;20244;-59
2023/11/20 00:41:10;;;;;;;8.90;2.23;;;11.50;99.90;;;;;;5031428;28;20213;-59
2023/11/20 00:43:37;;;;;;;11.07;2.43;;;11.40;99.90;;;;;;5032185;28;20588;-61
2023/11/20 00:46:04;;;;;;;8.47;2.20;;;11.40;99.90;;;;;;5035285;28;20234;-60
2023/11/20 00:48:31;;;;;;;9.60;2.67;;;11.30;99.90;;;;;;5035594;28;20220;-61
2023/11/20 00:50:58;;;;;;;11.97;2.43;;;11.30;99.90;;;;;;5035329;28;20705;-59
2023/11/20 00:53:26;;;;;;;10.13;2.50;;;11.20;99.90;;;;;;5035386;28;20218;-59
2023/11/20 00:55:53;;;;;;;8.00;2.27;;;11.20;99.90;;;;;;5035198;28;20218;-60
2023/11/20 00:58:20;;;;;;;11.27;2.87;;;11.20;99.90;;;;;;5035287;28;20214;-60
2023/11/20 01:00:47;;;;;;;8.37;2.10;;;11.20;99.90;;;;;;5035164;28;20664;-62
2023/11/20 01:03:14;;;;;;;15.73;2.60;;;11.10;99.90;;;;;;5035306;28;20213;-61
2023/11/20 01:05:42;;;;;;;10.77;2.80;;;11.10;99.90;;;;;;5034971;28;20226;-61
2023/11/20 01:08:09;;;;;;;10.03;2.43;;;11.10;99.90;;;;;;5035031;28;20691;-61
2023/11/20 01:10:37;;;;;;;10.03;2.00;;;11.10;99.90;;;;;;5035185;28;20242;-60
2023/11/20 01:13:04;;;;;;;9.97;2.80;;;11.20;99.90;;;;;;5035079;28;20278;-60
2023/11/20 01:15:30;;;;;;;12.53;2.60;;;11.20;99.90;;;;;;5035190;28;20210;-60
2023/11/20 01:17:57;;;;;;;11.20;2.27;;;11.20;99.90;;;;;;5035281;28;20672;-60
2023/11/20 01:20:24;;;;;;;7.67;2.10;;;11.30;99.90;;;;;;5034944;28;20210;-59
2023/11/20 01:22:51;;;;;;;9.80;2.37;;;11.50;99.90;;;;;;5034772;28;20289;-61
2023/11/20 01:25:18;;;;;;;7.93;1.83;;;11.60;99.90;;;;;;5034568;28;20230;-61
2023/11/20 01:27:46;;;;;;;8.57;2.20;;;11.80;99.90;;;;;;5034961;28;20257;-62
2023/11/20 01:30:13;;;;;;;7.07;2.17;;;11.90;99.90;;;;;;5034689;28;20210;-61
2023/11/20 01:32:40;;;;;;;14.53;2.50;;;12.00;99.90;;;;;;5034953;28;20207;-60
2023/11/20 01:35:08;;;;;;;10.27;2.47;;;12.00;99.90;;;;;;5034665;28;20207;-59
2023/11/20 01:37:35;;;;;;;10.03;2.73;;;12.10;99.90;;;;;;5034403;28;20279;-61
2023/11/20 01:40:04;;;;;;;8.43;2.40;;;12.20;99.90;;;;;;5034432;28;20210;-60
2023/11/20 01:42:31;;;;;;;14.50;2.70;;;12.10;99.90;;;;;;5034382;28;20233;-60
2023/11/20 01:44:59;;;;;;;8.67;1.97;;;12.20;99.90;;;;;;5034310;28;20600;-60
2023/11/20 01:47:25;;;;;;;9.60;2.23;;;12.30;99.90;;;;;;5034366;28;20232;-60
2023/11/20 01:49:53;;;;;;;8.33;2.40;;;12.50;99.90;;;;;;5034289;28;20257;-60
2023/11/20 01:52:19;;;;;;;9.47;2.17;;;12.50;99.90;;;;;;5034135;28;20206;-62
2023/11/20 01:54:46;;;;;;;13.80;2.47;;;12.60;99.90;;;;;;5033796;28;20209;-60
2023/11/20 01:57:13;;;;;;;8.43;2.33;;;12.70;99.90;;;;;;5034256;28;20234;-60
2023/11/20 01:59:40;;;;;;;7.90;2.20;;;12.80;99.90;;;;;;5034248;28;20202;-59
2023/11/20 02:02:09;;;;;;;12.80;2.43;;;12.90;99.90;;;;;;5034160;28;20590;-60
2023/11/20 02:04:39;;;;;;;7.37;2.03;;;13.00;99.90;;;;;;5033718;28;20563;-59
2023/11/20 02:07:07;;;;;;;5.90;1.90;;;13.00;99.90;;;;;;5033705;28;20241;-59
2023/11/20 02:09:35;;;;;;;8.97;2.57;;;13.10;99.90;;;;;;5034033;28;20560;-60
2023/11/20 02:12:01;;;;;;;13.57;2.50;;;13.10;99.90;;;;;;5033892;28;20206;-61
2023/11/20 02:14:28;;;;;;;10.33;2.27;;;13.20;99.90;;;;;;5033890;28;20214;-59
2023/11/20 02:16:55;;;;;;;9.30;2.10;;;13.20;99.90;;;;;;5033936;28;20637;-60
2023/11/20 02:19:23;;;;;;;11.10;2.10;;;13.20;99.90;;;;;;5034084;28;20218;-62
2023/11/20 02:21:50;;;;;;;9.80;2.47;;;13.20;99.90;;;;;;5033625;28;20206;-61
2023/11/20 02:24:17;;;;;;;8.77;2.63;;;13.30;99.90;;;;;;5033875;28;20234;-59
2023/11/20 02:27:06;;;;;;;9.93;2.37;;;13.20;99.90;;;;;;5033627;28;20237;-61
2023/11/20 02:29:52;;;;;;;14.07;3.80;;;13.30;99.90;;;;;;5033553;28;20202;-59
2023/11/20 02:32:18;;;;;;;8.17;2.00;;;13.40;99.90;;;;;;5033462;28;20217;-60
2023/11/20 02:34:45;;;;;;;6.13;2.33;;;13.30;99.90;;;;;;5033420;28;20261;-58
2023/11/20 02:37:12;;;;;;;9.17;2.23;;;13.30;99.90;;;;;;5033314;28;20720;-59
2023/11/20 02:39:38;;;;;;;11.50;2.37;;;13.20;99.90;;;;;;5033485;28;20210;-60
2023/11/20 02:42:06;;;;;;;8.90;2.40;;;13.30;99.90;;;;;;5033581;28;20219;-59
2023/11/20 02:44:36;;;;;;;7.80;2.60;;;13.30;99.90;;;;;;5033130;28;20214;-58
2023/11/20 02:47:05;;;;;;;10.70;2.70;;;13.40;99.90;;;;;;5033525;28;20230;-59
2023/11/20 02:49:32;;;;;;;8.73;2.07;;;13.40;99.90;;;;;;5033327;28;20245;-59
2023/11/20 02:51:58;;;;;;;6.23;1.63;;;13.30;99.90;;;;;;5034909;28;20210;-62
2023/11/20 02:54:25;;;;;;;11.87;2.60;;;13.40;99.90;;;;;;5034449;28;20248;-60
2023/11/20 02:56:52;;;;;;;6.93;1.97;;;13.30;99.90;;;;;;5034383;28;20229;-60
2023/11/20 02:59:19;;;;;;;11.30;2.17;;;13.30;99.90;;;;;;5034157;28;20225;-61
2023/11/20 03:01:47;;;;;;;7.77;1.90;;;13.30;99.90;;;;;;5034385;28;20634;-60
2023/11/20 03:04:15;;;;;;;8.93;2.20;;;13.30;99.90;;;;;;5033751;28;20639;-60
2023/11/20 03:06:42;;;;;;;6.53;2.10;;;13.30;99.90;;;;;;5032134;28;20238;-60
2023/11/20 03:09:09;;;;;;;9.90;2.20;;;13.40;99.90;;;;;;5033001;28;20213;-60
2023/11/20 03:11:35;;;;;;;9.37;1.93;;;13.40;99.90;;;;;;5032896;28;20210;-60
2023/11/20 03:14:02;;;;;;;9.00;2.10;;;13.40;99.90;;;;;;5033177;28;20218;-61
2023/11/20 03:16:30;;;;;;;7.10;1.90;;;13.30;99.90;;;;;;5032812;28;20257;-61
2023/11/20 03:18:57;;;;;;;6.90;2.10;;;13.40;99.90;;;;;;5032788;28;20320;-61
2023/11/20 03:21:26;;;;;;;7.83;2.00;;;13.40;99.90;;;;;;5032900;28;20248;-60
2023/11/20 03:23:53;;;;;;;10.80;2.20;;;13.50;99.90;;;;;;5033093;28;20217;-60
2023/11/20 03:26:22;;;;;;;7.23;1.93;;;13.40;99.90;;;;;;5032216;28;20230;-59
2023/11/20 03:28:49;;;;;;;7.50;2.00;;;13.20;99.90;;;;;;5032763;28;20210;-59
2023/11/20 03:31:16;;;;;;;7.13;1.80;;;13.30;99.90;;;;;;5032560;28;20220;-60
2023/11/20 03:33:45;;;;;;;5.50;1.90;;;13.30;99.90;;;;;;5032755;28;20229;-59
2023/11/20 03:36:12;;;;;;;5.10;1.60;;;13.20;99.90;;;;;;5032322;28;20222;-60
2023/11/20 03:38:40;;;;;;;9.03;2.23;;;13.20;99.90;;;;;;5032377;28;20596;-60
2023/11/20 03:41:08;;;;;;;6.13;2.00;;;13.30;99.90;;;;;;5032581;28;20210;-60
2023/11/20 03:43:35;;;;;;;7.53;2.50;;;13.20;99.90;;;;;;5032596;28;20252;-59
2023/11/20 03:46:01;;;;;;;10.53;2.03;;;13.30;99.90;;;;;;5032021;28;20233;-60
2023/11/20 03:48:28;;;;;;;6.40;2.30;;;13.30;99.90;;;;;;5032252;28;20260;-60
2023/11/20 03:50:55;;;;;;;8.27;2.10;;;13.30;99.90;;;;;;5032090;28;20245;-59
2023/11/20 03:53:21;;;;;;;7.90;2.13;;;13.30;99.90;;;;;;5032045;28;20211;-60
2023/11/20 03:55:49;;;;;;;6.90;2.10;;;13.30;99.90;;;;;;5032066;28;20206;-60
2023/11/20 03:58:17;;;;;;;9.50;2.10;;;13.30;99.90;;;;;;5032103;28;20594;-59
2023/11/20 04:00:44;;;;;;;9.13;2.23;;;13.30;99.90;;;;;;5032049;28;20206;-61
2023/11/20 04:03:11;;;;;;;6.10;2.00;;;13.30;99.90;;;;;;5031888;28;20209;-59
2023/11/20 04:05:38;;;;;;;7.20;2.10;;;13.30;99.90;;;;;;5031599;28;20226;-60
2023/11/20 04:08:05;;;;;;;6.97;1.90;;;13.20;99.90;;;;;;5071886;23;20728;-63
2023/11/20 04:10:32;;;;;;;11.00;2.20;;;13.20;99.90;;;;;;5051383;28;20229;-62
2023/11/20 04:13:00;;;;;;;6.67;1.80;;;13.20;99.90;;;;;;5051383;28;20212;-63
2023/11/20 04:15:26;;;;;;;8.83;2.23;;;13.20;99.90;;;;;;5051021;28;20201;-61
2023/11/20 04:17:53;;;;;;;7.27;2.07;;;13.10;99.90;;;;;;5042924;28;20217;-61
2023/11/20 04:20:20;;;;;;;9.10;2.23;;;13.20;99.90;;;;;;5042183;28;20213;-61
2023/11/20 04:22:47;;;;;;;7.70;2.00;;;13.20;99.90;;;;;;5039814;28;20210;-61
2023/11/20 04:25:13;;;;;;;10.87;2.27;;;13.20;99.90;;;;;;5039499;28;20619;-62
2023/11/20 04:27:40;;;;;;;6.97;1.83;;;13.30;99.90;;;;;;5042570;28;20231;-63
2023/11/20 04:30:10;;;;;;;10.53;2.53;;;13.30;99.90;;;;;;5042868;28;20212;-62
2023/11/20 04:32:37;;;;;;;7.13;1.93;;;13.40;99.90;;;;;;5039901;28;20228;-62
2023/11/20 04:35:05;;;;;;;10.00;2.30;;;13.50;99.90;;;;;;5039011;28;20202;-62
2023/11/20 04:37:32;;;;;;;6.83;1.80;;;13.50;99.90;;;;;;5041070;28;20218;-61
2023/11/20 04:39:58;;;;;;;5.73;1.47;;;13.60;99.90;;;;;;5042790;28;20616;-61
2023/11/20 04:42:25;;;;;;;9.60;2.00;;;13.60;99.90;;;;;;5041761;28;20583;-61
2023/11/20 04:44:52;;;;;;;12.60;2.17;;;13.60;99.90;;;;;;5039089;28;20202;-62
2023/11/20 04:47:20;;;;;;;6.70;1.93;;;13.70;99.90;;;;;;5039022;28;20316;-61
2023/11/20 04:49:46;;;;;;;8.73;1.90;;;13.80;99.90;;;;;;5042322;28;20675;-64
2023/11/20 04:52:13;;;;;;;10.20;2.10;;;13.80;99.90;;;;;;5042825;28;20202;-61
2023/11/20 04:54:40;;;;;;;7.57;1.90;;;13.80;99.90;;;;;;5039258;28;20202;-62
2023/11/20 04:57:09;;;;;;;8.30;2.23;;;13.90;99.90;;;;;;5039180;28;20218;-62
2023/11/20 04:59:36;;;;;;;8.10;1.93;;;13.90;99.90;;;;;;5041382;28;20672;-62
2023/11/20 05:02:03;;;;;;;7.40;2.17;;;13.80;99.90;;;;;;5042339;28;20202;-62
2023/11/20 05:04:31;;;;;;;6.13;1.83;;;13.80;99.90;;;;;;5040907;28;20259;-62
2023/11/20 05:06:58;;;;;;;9.03;2.30;;;13.80;99.90;;;;;;5038908;28;20230;-62
2023/11/20 05:09:24;;;;;;;8.50;2.10;;;13.90;99.90;;;;;;5039782;28;20213;-62
2023/11/20 05:11:51;;;;;;;8.60;2.20;;;13.80;99.90;;;;;;5042423;28;20212;-62
2023/11/20 05:14:18;;;;;;;8.20;2.17;;;13.80;99.90;;;;;;5042266;28;20197;-62
2023/11/20 05:16:45;;;;;;;10.30;2.20;;;13.80;99.90;;;;;;5030822;28;20222;-62
2023/11/20 05:19:12;;;;;;;6.43;1.90;;;13.80;99.90;;;;;;5039393;28;20210;-63
2023/11/20 05:21:41;;;;;;;10.83;2.40;;;13.80;99.90;;;;;;5041462;28;20703;-62
2023/11/20 05:24:09;;;;;;;6.03;1.83;;;13.70;99.90;;;;;;5043069;28;20201;-61
2023/11/20 05:26:35;;;;;;;6.47;2.10;;;13.80;99.90;;;;;;5040015;28;20287;-61
2023/11/20 05:29:02;;;;;;;5.97;1.90;;;13.80;99.90;;;;;;5039325;28;20202;-62
2023/11/20 05:31:29;;;;;;;8.50;2.23;;;13.80;99.90;;;;;;5043870;28;20202;-63
2023/11/20 05:33:55;;;;;;;8.37;2.10;;;13.80;99.90;;;;;;5046009;28;20209;-63
2023/11/20 05:36:22;;;;;;;10.27;2.80;;;13.70;99.90;;;;;;5045132;28;20233;-62
2023/11/20 05:38:50;;;;;;;7.20;2.37;;;13.80;99.90;;;;;;5042469;28;20237;-62
2023/11/20 05:41:17;;;;;;;8.43;2.00;;;13.80;99.90;;;;;;5042083;28;20206;-62
2023/11/20 05:43:44;;;;;;;11.83;3.23;;;13.80;99.90;;;;;;5045666;28;20206;-62
2023/11/20 05:46:13;;;;;;;7.13;2.10;;;13.80;99.90;;;;;;5045503;28;20228;-61
2023/11/20 05:48:39;;;;;;;5.93;2.17;;;13.80;99.90;;;;;;5042626;28;20590;-62
2023/11/20 05:51:06;;;;;;;9.77;2.47;;;13.80;99.90;;;;;;5042170;28;20202;-61
2023/11/20 05:53:33;;;;;;;7.10;1.93;;;13.80;99.90;;;;;;5043961;28;20210;-63
2023/11/20 05:56:01;;;;;;;9.27;2.43;;;13.90;99.90;;;;;;5045209;28;20394;-63
2023/11/20 05:58:28;;;;;;;10.17;2.40;;;13.90;99.90;;;;;;5044293;28;20713;-63
2023/11/20 06:00:55;;;;;;;10.43;2.57;;;13.90;99.90;;;;;;5042562;28;20205;-62
2023/11/20 06:03:21;;;;;;;17.20;8.33;;;13.90;99.90;;;;;;5041944;28;20217;-62
2023/11/20 06:05:48;;;;;;;10.33;2.67;;;13.80;99.90;;;;;;5045110;28;20202;-63
2023/11/20 06:08:15;;;;;;;7.53;2.13;;;13.90;99.90;;;;;;5044842;28;20225;-64
2023/11/20 06:10:41;;;;;;;10.07;2.70;;;13.80;99.90;;;;;;5042074;28;20292;-62
2023/11/20 06:13:09;;;;;;;6.73;2.33;;;13.80;99.90;;;;;;5041428;28;20207;-63
2023/11/20 06:15:36;;;;;;;8.13;2.30;;;13.80;99.90;;;;;;5043348;28;20202;-62
2023/11/20 06:18:03;;;;;;;10.33;2.70;;;13.80;99.90;;;;;;5044945;28;20217;-61
2023/11/20 06:20:30;;;;;;;9.53;2.10;;;13.80;99.90;;;;;;5043446;28;20198;-62
2023/11/20 06:22:57;;;;;;;7.70;2.10;;;13.90;99.90;;;;;;5041327;28;20217;-62
2023/11/20 06:25:24;;;;;;;4.73;1.87;;;13.90;99.90;;;;;;5041623;28;20537;-63
2023/11/20 06:27:50;;;;;;;7.97;2.50;;;13.90;99.90;;;;;;5044670;28;20619;-62
2023/11/20 06:30:19;;;;;;;8.33;2.47;;;13.90;99.90;;;;;;5044939;28;20202;-62
2023/11/20 06:32:45;;;;;;;6.03;2.00;;;14.00;99.90;;;;;;5041400;28;20206;-61
2023/11/20 06:35:12;;;;;;;6.07;2.17;;;13.90;99.90;;;;;;5041259;28;20587;-62
2023/11/20 06:37:39;;;;;;;14.07;2.87;;;13.90;99.90;;;;;;5043824;28;20307;-61
2023/11/20 06:40:07;;;;;;;13.63;2.37;;;13.90;99.90;;;;;;5044691;28;20209;-62
2023/11/20 06:42:33;;;;;;;7.50;2.00;;;13.90;99.90;;;;;;5041670;28;20289;-62
2023/11/20 06:45:00;;;;;;;8.17;2.33;;;14.00;99.90;;;;;;5041135;28;20264;-62
2023/11/20 06:47:28;;;;;;;5.97;2.07;;;13.90;99.90;;;;;;5041774;28;20517;-62
2023/11/20 06:49:55;;;;;;;9.27;2.13;;;13.90;99.90;;;;;;5044585;28;20522;-62
2023/11/20 06:52:21;;;;;;;10.17;2.23;;;13.80;99.90;;;;;;5044228;28;20202;-62
2023/11/20 06:54:49;;;;;;;6.20;2.10;;;13.80;99.90;;;;;;5040931;28;20771;-62
2023/11/20 06:57:15;;;;;;;8.20;2.10;;;13.80;99.90;;;;;;5041048;28;20583;-62
2023/11/20 06:59:44;;;;;;;9.50;2.30;;;13.80;99.90;;;;;;5043918;28;20209;-62
2023/11/20 07:02:11;;;;;;;10.00;2.27;;;13.90;99.90;;;;;;5044585;28;20208;-62
2023/11/20 07:04:44;;;;;;;9.40;2.63;;;14.00;99.90;;;;;;5041993;28;20296;-62
2023/11/20 07:07:11;;;;;;;6.37;1.67;;;14.00;99.90;;;;;;5040467;28;20230;-62
2023/11/20 07:09:38;;;;;;;8.77;2.17;;;14.10;99.90;;;;;;5042564;28;20293;-62
2023/11/20 07:12:05;;;;;;;12.70;3.93;;;14.10;99.90;;;;;;5044511;28;20221;-62
2023/11/20 07:14:32;;;;;;;5.73;3.20;;;14.10;99.90;;;;;;5042814;28;20213;-62
2023/11/20 07:16:58;;;;;;;10.50;4.07;;;14.20;99.90;;;;;;5040767;28;20225;-62
2023/11/20 07:19:25;;;;;;;8.43;2.37;;;14.20;99.90;;;;;;5041220;28;20206;-63
2023/11/20 07:21:53;;;;;;;7.03;2.13;;;14.20;99.90;;;;;;5044255;28;20202;-61
2023/11/20 07:24:21;;;;;;;10.43;2.87;;;14.20;99.90;;;;;;5044224;28;20579;-63
2023/11/20 07:26:48;;;;;;;9.07;2.60;;;14.30;99.90;;;;;;5032432;28;20613;-62
2023/11/20 07:29:14;;;;;;;9.23;2.07;;;14.30;99.90;;;;;;5040361;28;20211;-62
2023/11/20 07:31:41;;;;;;;5.57;1.63;;;14.30;99.90;;;;;;5042877;28;20294;-61
2023/11/20 07:34:08;;;;;;;5.90;2.53;;;14.20;99.90;;;;;;5043504;28;20201;-63
2023/11/20 07:36:35;;;;;;;8.40;2.10;;;14.20;99.90;;;;;;5041660;28;20232;-63
2023/11/20 07:39:03;;;;;;;7.10;1.97;;;14.30;99.90;;;;;;5040352;28;20203;-60
2023/11/20 07:41:30;;;;;;;6.33;1.90;;;14.30;99.90;;;;;;5040955;28;20233;-61
2023/11/20 07:43:57;;;;;;;11.37;2.40;;;14.30;99.90;;;;;;5043368;28;20690;-61
2023/11/20 07:46:23;;;;;;;6.10;2.80;;;14.40;99.90;;;;;;5042939;28;20710;-62
2023/11/20 07:48:50;;;;;;;9.47;2.30;;;14.50;99.90;;;;;;5039735;28;20225;-62
2023/11/20 07:51:18;;;;;;;9.03;2.53;;;14.50;99.90;;;;;;5040052;28;20198;-62
2023/11/20 07:53:45;;;;;;;7.40;2.13;;;14.50;99.90;;;;;;5042125;28;20263;-62
2023/11/20 07:56:13;;;;;;;14.13;5.33;;;14.60;99.90;;;;;;5042998;28;20685;-62
2023/11/20 07:58:39;;;;;;;9.37;2.60;;;14.70;99.90;;;;;;5041232;28;20289;-62
2023/11/20 08:01:07;;;;;;;10.37;2.50;;;14.70;99.90;;;;;;5039581;28;20202;-62
2023/11/20 08:03:34;;;;;;;11.03;2.53;;;14.70;99.90;;;;;;5041294;28;20238;-62
2023/11/20 08:06:01;;;;;;;12.63;2.30;;;14.70;99.90;;;;;;5043010;28;20208;-62
2023/11/20 08:08:28;;;;;;;12.23;2.17;;;14.80;99.90;;;;;;5042394;28;20214;-62
2023/11/20 08:10:54;;;;;;;6.93;1.53;;;14.70;99.90;;;;;;5039640;28;20213;-62
2023/11/20 08:13:22;;;;;;;7.87;2.00;;;14.70;99.90;;;;;;5039568;28;20202;-62
2023/11/20 08:15:49;;;;;;;11.70;2.33;;;14.80;99.90;;;;;;5042823;28;20201;-62
2023/11/20 08:18:16;;;;;;;8.43;2.23;;;14.70;99.90;;;;;;5042733;28;20313;-62
2023/11/20 08:20:42;;;;;;;10.20;2.03;;;14.80;99.90;;;;;;5040001;28;20232;-63
2023/11/20 08:23:09;;;;;;;12.93;2.30;;;14.80;99.90;;;;;;5039398;28;20209;-62
2023/11/20 08:25:36;;;;;;;6.27;1.80;;;14.90;99.90;;;;;;5040908;28;20219;-61
2023/11/20 08:28:02;;;;;;;6.60;1.90;;;15.00;99.90;;;;;;5042823;28;20308;-59
2023/11/20 08:30:33;;;;;;;6.30;1.63;;;15.00;99.90;;;;;;5041972;28;20583;-61
2023/11/20 08:33:00;;;;;;;8.03;2.00;;;15.00;99.90;;;;;;5039648;28;20210;-60
2023/11/20 08:35:27;;;;;;;20.00;13.50;;;14.90;99.90;;;;;;5039511;28;20564;-59
2023/11/20 08:37:54;;;;;;;10.33;3.20;;;14.90;99.90;;;;;;5042723;28;20221;-60
2023/11/20 08:40:21;;;;;;;7.87;2.37;;;15.00;99.90;;;;;;5042554;28;20217;-60
2023/11/20 08:42:48;;;;;;;10.33;2.50;;;15.00;99.90;;;;;;5039211;28;20213;-60
2023/11/20 08:45:14;;;;;;;9.47;2.43;;;15.00;99.90;;;;;;5038961;28;20206;-60
2023/11/20 08:47:43;;;;;;;8.00;1.97;;;15.00;99.90;;;;;;5041350;28;20526;-60
2023/11/20 08:50:12;;;;;;;7.63;2.27;;;15.00;99.90;;;;;;5042439;28;20647;-59
2023/11/20 08:52:39;;;;;;;8.50;1.60;;;15.00;99.90;;;;;;5040642;28;20229;-59
2023/11/20 08:55:07;;;;;;;7.53;1.83;;;15.10;99.90;;;;;;5039015;28;20209;-59
2023/11/20 08:57:35;;;;;;;11.23;1.97;;;15.10;99.90;;;;;;5040145;28;20218;-61
2023/11/20 09:00:02;;;;;;;6.40;1.77;;;15.20;99.90;;;;;;5042640;28;20284;-59
2023/11/20 09:02:29;;;;;;;7.30;2.20;;;15.20;99.90;;;;;;5041904;28;20206;-58
2023/11/20 09:04:57;;;;;;;7.40;2.23;;;15.20;99.90;;;;;;5040316;28;20206;-58
2023/11/20 09:07:24;;;;;;;6.50;2.70;;;15.20;99.90;;;;;;5042824;28;20258;-59
2023/11/20 09:09:50;;;;;;;5.60;2.27;;;15.20;99.90;;;;;;5034825;28;20214;-59
2023/11/20 09:12:17;;;;;;;7.57;2.17;;;15.30;99.90;;;;;;5042721;28;20696;-58
2023/11/20 09:14:44;;;;;;;6.10;1.57;;;15.40;99.90;;;;;;5045291;28;20210;-58
2023/11/20 09:17:13;;;;;;;8.57;2.47;;;15.60;99.90;;;;;;5046233;28;20278;-59
2023/11/20 09:19:40;;;;;;;8.70;2.77;;;15.80;99.90;;;;;;5044299;28;20206;-59
2023/11/20 09:22:08;;;;;;;11.90;2.22;;;16.00;99.90;;;;;;5042746;28;20210;-60
2023/11/20 09:24:35;;;;;;;8.43;1.90;;;16.20;99.90;;;;;;5043683;28;20664;-60
2023/11/20 09:27:02;;;;;;;5.90;2.00;;;16.20;99.90;;;;;;5046023;28;20703;-59
2023/11/20 09:29:28;;;;;;;7.43;1.93;;;16.20;99.90;;;;;;5045920;28;20202;-59
2023/11/20 09:31:55;;;;;;;10.18;2.00;;;16.20;99.90;;;;;;5043252;28;20202;-58
2023/11/20 09:34:23;;;;;;;5.63;1.83;;;16.10;99.90;;;;;;5043485;28;20229;-59
2023/11/20 09:36:50;;;;;;;7.23;1.70;;;15.90;99.90;;;;;;5046416;28;20783;-59
2023/11/20 09:39:19;;;;;;;7.20;1.70;;;15.90;99.90;;;;;;5046897;28;20247;-60
2023/11/20 09:41:46;;;;;;;10.57;3.80;;;15.90;99.90;;;;;;5044314;28;20221;-59
2023/11/20 09:44:13;;;;;;;6.47;1.97;;;15.80;99.90;;;;;;5043496;28;20210;-59
2023/11/20 09:46:44;;;;;;;5.07;1.60;;;15.70;99.90;;;;;;5044480;28;20253;-59
2023/11/20 09:49:16;;;;;;;9.43;2.03;;;15.80;99.90;;;;;;5045947;28;20226;-58
2023/11/20 09:51:46;;;;;;;6.80;2.00;;;15.80;99.90;;;;;;5043517;28;20213;-59
2023/11/20 09:54:14;;;;;;;9.43;2.10;;;15.90;99.90;;;;;;5042465;28;20695;-59
2023/11/20 09:56:42;;;;;;;6.65;1.75;;;16.00;99.90;;;;;;5044380;28;20222;-60
2023/11/20 09:59:11;;;;;;;6.38;1.55;;;16.10;99.90;;;;;;5046116;28;20197;-63
2023/11/20 10:01:39;;;;;;;4.82;1.73;;;16.20;99.90;;;;;;5045107;28;20224;-61
2023/11/20 10:04:07;;;;;;;4.65;2.00;;;16.50;99.90;;;;;;5043547;28;20203;-60
2023/11/20 10:06:36;;;;;;;5.70;1.73;;;16.40;99.90;;;;;;5066907;22;20444;-58
2023/11/20 10:09:05;;;;;;;6.47;1.73;;;16.50;99.90;;;;;;5046437;28;20222;-61
2023/11/20 10:11:33;;;;;;;5.68;1.85;;;16.40;99.90;;;;;;5042200;28;20212;-59
2023/11/20 10:14:01;;;;;;;5.68;1.70;;;16.20;99.90;;;;;;5045923;28;20288;-63
2023/11/20 10:16:32;;;;;;;10.32;5.93;;;16.00;99.90;;;;;;5045914;28;20216;-62
2023/11/20 10:18:59;;;;;;;8.93;1.83;;;16.00;99.90;;;;;;5041772;28;20202;-62
2023/11/20 10:21:26;;;;;;;5.83;1.90;;;16.00;99.90;;;;;;5041366;28;20205;-62
2023/11/20 10:23:54;;;;;;;4.22;1.38;;;15.90;99.90;;;;;;5045213;28;20229;-62
2023/11/20 10:26:22;;;;;;;6.25;1.70;;;15.80;99.90;;;;;;5044375;28;20202;-62
2023/11/20 10:28:49;;;;;;;6.17;1.40;;;15.70;99.90;;;;;;5042738;28;20218;-62
2023/11/20 10:31:17;;;;;;;3.20;1.50;;;15.60;99.90;;;;;;5041454;28;20206;-61
2023/11/20 10:33:44;;;;;;;5.93;1.60;;;15.40;99.90;;;;;;5043731;28;20637;-62
2023/11/20 10:36:12;;;;;;;6.17;1.60;;;15.30;99.90;;;;;;5044610;28;20311;-62
2023/11/20 10:38:39;;;;;;;5.60;1.63;;;15.40;99.90;;;;;;5042891;28;20706;-63
2023/11/20 10:41:08;;;;;;;6.68;1.92;;;15.50;99.90;;;;;;5040832;28;20198;-62
2023/11/20 10:43:37;;;;;;;7.17;2.83;;;15.40;99.90;;;;;;5041860;28;20233;-64
2023/11/20 10:46:05;;;;;;;6.73;1.67;;;15.30;99.90;;;;;;5044269;28;20718;-62
2023/11/20 10:48:34;;;;;;;7.43;1.33;;;15.40;99.90;;;;;;5043836;28;20304;-62
2023/11/20 10:51:06;;;;;;;9.60;1.92;;;15.50;99.90;;;;;;5040695;28;20198;-61
2023/11/20 10:53:39;;;;;;;4.38;1.77;;;15.50;99.90;;;;;;5041239;28;20214;-62
2023/11/20 10:56:07;;;;;;;6.27;1.70;;;15.40;99.90;;;;;;5044199;28;20229;-61
2023/11/20 10:58:34;;;;;;;4.17;1.90;;;15.60;99.90;;;;;;5043468;28;20252;-58
2023/11/20 11:01:02;;;;;;;5.20;2.37;;;15.80;99.90;;;;;;5041007;28;20206;-57
2023/11/20 11:03:30;;;;;;;3.97;1.57;;;16.00;99.90;;;;;;5040497;28;20241;-62
2023/11/20 11:06:03;;;;;;;9.27;1.90;;;16.10;99.90;;;;;;5043920;28;20204;-59
2023/11/20 11:08:32;;;;;;;6.20;1.53;;;16.00;99.90;;;;;;5043633;28;20680;-59
2023/11/20 11:11:00;;;;;;;3.50;1.43;;;15.80;99.90;;;;;;5043956;28;20296;-62
2023/11/20 11:13:32;;;;;;;4.43;1.30;;;15.70;99.90;;;;;;5043701;28;20216;-61
2023/11/20 11:16:01;;;;;;;6.03;2.23;;;15.80;99.90;;;;;;5047636;28;20661;-60
2023/11/20 11:18:30;;;;;;;5.30;2.08;;;16.00;99.90;;;;;;5039987;28;20222;-60
2023/11/20 11:21:00;;;;;;;6.57;1.27;;;16.20;99.90;;;;;;5044127;28;20267;-59
2023/11/20 11:23:41;;;;;;;4.88;1.50;;;16.30;99.90;;;;;;5043495;28;20725;-59
2023/11/20 11:26:18;;;;;;;4.95;1.42;;;16.30;99.90;;;;;;5045535;28;20671;-60
2023/11/20 11:28:51;;;;;;;3.27;1.27;;;16.10;99.90;;;;;;5040677;28;20236;-58
2023/11/20 11:31:20;;;;;;;6.88;2.00;;;16.00;99.90;;;;;;5040012;28;20676;-60
2023/11/20 11:34:06;;;;;;;4.53;1.80;;;15.90;99.90;;;;;;5042330;28;20628;-60
2023/11/20 11:36:48;;;;;;;5.00;1.15;;;15.60;99.90;;;;;;5019911;28;20217;-60
2023/11/20 11:39:22;;;;;;;2.88;1.00;;;15.40;99.90;;;;;;5040170;28;20205;-59
2023/11/20 11:41:59;;;;;;;3.90;1.13;;;15.20;99.90;;;;;;5042494;28;20206;-60
2023/11/20 11:44:38;;;;;;;1.90;0.80;;;15.00;99.90;;;;;;5042759;28;20559;-60
2023/11/20 11:47:08;;;;;;;2.70;1.10;;;15.10;99.90;;;;;;5046552;28;20229;-60
2023/11/20 11:49:37;;;;;;;3.80;1.70;;;15.10;99.90;;;;;;5040299;28;20305;-59
2023/11/20 11:52:07;;;;;;;2.97;1.03;;;15.00;99.90;;;;;;5042838;28;20229;-60
2023/11/20 11:54:33;;;;;;;5.37;2.87;;;14.90;99.90;;;;;;5042350;28;20247;-60
2023/11/20 11:57:05;;;;;;;3.60;1.00;;;14.90;99.90;;;;;;5039672;28;20226;-60
2023/11/20 11:59:39;;;;;;;5.27;1.20;;;14.80;99.90;;;;;;5039624;28;20194;-60
2023/11/20 12:02:06;;;;;;;5.43;1.67;;;14.90;99.90;;;;;;5042988;28;20201;-60
2023/11/20 12:05:06;;;;;;;1.93;1.10;;;14.90;99.90;;;;;;5042378;28;20300;-59
2023/11/20 12:07:49;;;;;;;5.27;1.37;;;14.90;99.90;;;;;;5039431;28;20234;-59
2023/11/20 12:10:17;;;;;;;7.20;2.10;;;15.00;99.90;;;;;;5042754;28;20201;-59
2023/11/20 12:13:08;;;;;;;4.03;2.00;;;15.00;99.90;;;;;;5041078;28;20210;-59
2023/11/20 12:15:37;;;;;;;3.33;1.57;;;15.20;99.90;;;;;;5039870;28;20214;-60
2023/11/20 12:18:10;;;;;;;5.17;1.33;;;15.30;99.90;;;;;;5042889;28;20225;-59
2023/11/20 12:20:37;;;;;;;4.27;1.37;;;15.50;99.90;;;;;;5041769;28;20206;-59
2023/11/20 12:23:08;;;;;;;4.50;1.50;;;15.70;99.90;;;;;;5039362;28;20202;-59
2023/11/20 12:25:37;;;;;;;1.93;0.90;;;16.00;99.90;;;;;;5039651;28;20684;-60
2023/11/20 12:28:05;;;;;;;3.97;1.50;;;16.20;99.90;;;;;;5042805;28;20256;-60
2023/11/20 12:30:33;;;;;;;6.70;1.93;;;16.20;99.90;;;;;;5042612;28;20205;-60
2023/11/20 12:32:59;;;;;;;9.75;2.97;;;16.10;99.90;;;;;;5039574;28;20214;-59
2023/11/20 12:35:26;;;;;;;7.07;1.88;;;16.00;99.90;;;;;;5039229;28;20248;-58
2023/11/20 12:37:53;;;;;;;2.20;1.20;;;16.10;99.90;;;;;;5042127;28;20600;-58
2023/11/20 12:40:21;;;;;;;4.20;1.20;;;16.30;99.90;;;;;;5043175;28;20256;-58
2023/11/20 12:42:48;;;;;;;4.10;1.30;;;16.50;99.90;;;;;;5040502;28;20205;-59
2023/11/20 12:45:15;;;;;;;2.92;1.33;;;16.50;99.90;;;;;;5039025;28;20293;-60
2023/11/20 12:47:41;;;;;;;4.10;1.15;;;16.50;99.90;;;;;;5040557;28;20234;-60
2023/11/20 12:50:13;;;;;;;2.57;1.07;;;16.40;99.90;;;;;;5042356;28;20214;-57